createdAt,value
2023-07-24T00:01:51.550Z,63.75
2023-07-24T00:04:20.286Z,63.98
2023-07-24T00:06:49.088Z,63.58
2023-07-24T00:09:17.997Z,63.89
2023-07-24T00:11:46.800Z,64.10
2023-07-24T00:14:15.589Z,63.97
2023-07-24T00:16:44.577Z,63.86
2023-07-24T00:19:14.783Z,63.81
2023-07-24T00:21:45.995Z,64.26
2023-07-24T00:24:14.713Z,63.86
2023-07-24T00:26:43.437Z,64.15
2023-07-24T00:29:12.290Z,64.06
2023-07-24T00:31:41.120Z,63.96
2023-07-24T00:34:13.165Z,64.03
2023-07-24T00:36:42.677Z,64.36
2023-07-24T00:39:11.481Z,64.14
2023-07-24T00:41:43.695Z,64.05
2023-07-24T00:44:12.549Z,64.26
2023-07-24T00:46:42.332Z,64.39
2023-07-24T00:49:13.210Z,64.42
2023-07-24T00:51:42.723Z,64.49
2023-07-24T00:54:11.603Z,64.49
2023-07-24T00:56:40.718Z,64.68
2023-07-24T00:59:10.897Z,64.85
2023-07-24T01:01:42.372Z,64.81
2023-07-24T01:04:11.456Z,65.06
2023-07-24T01:06:42.129Z,65.34
2023-07-24T01:09:11.788Z,65.25
2023-07-24T01:11:48.625Z,65.29
2023-07-24T01:14:28.519Z,65.88
2023-07-24T01:17:01.232Z,66.01
2023-07-24T01:19:39.950Z,65.68
2023-07-24T01:22:23.277Z,66.39
2023-07-24T01:25:19.379Z,66.17
2023-07-24T01:27:51.579Z,66.51
2023-07-24T01:30:22.435Z,66.24
2023-07-24T01:32:51.872Z,66.26
2023-07-24T01:35:21.040Z,66.25
2023-07-24T01:37:51.171Z,66.19
2023-07-24T01:40:22.374Z,65.92
2023-07-24T01:42:53.282Z,65.91
2023-07-24T01:45:34.531Z,66.58
2023-07-24T01:48:03.388Z,66.45
2023-07-24T01:50:32.266Z,65.98
2023-07-24T01:53:01.398Z,66.20
2023-07-24T01:55:30.229Z,66.46
2023-07-24T01:58:00.513Z,66.38
2023-07-24T02:00:29.584Z,66.41
2023-07-24T02:03:01.421Z,66.80
2023-07-24T02:05:33.540Z,66.33
2023-07-24T02:08:02.567Z,66.01
2023-07-24T02:10:31.410Z,66.58
2023-07-24T02:13:01.712Z,66.36
2023-07-24T02:15:30.588Z,66.22
2023-07-24T02:17:59.364Z,65.97
2023-07-24T02:20:28.230Z,66.57
2023-07-24T02:22:58.417Z,65.89
2023-07-24T02:25:28.393Z,65.86
2023-07-24T02:27:57.115Z,66.40
2023-07-24T02:30:27.732Z,66.20
2023-07-24T02:32:58.422Z,66.61
2023-07-24T02:35:27.527Z,66.78
2023-07-24T02:37:56.292Z,66.69
2023-07-24T02:40:25.208Z,66.20
2023-07-24T02:42:54.030Z,66.32
2023-07-24T02:45:22.772Z,65.76
2023-07-24T02:47:54.259Z,65.63
2023-07-24T02:50:23.137Z,66.03
2023-07-24T02:52:51.891Z,66.56
2023-07-24T02:55:20.773Z,66.06
2023-07-24T02:57:49.581Z,66.41
2023-07-24T03:00:20.815Z,65.70
2023-07-24T03:02:53.414Z,66.42
2023-07-24T03:05:23.376Z,66.58
2023-07-24T03:07:52.147Z,66.84
2023-07-24T03:10:22.809Z,66.80
2023-07-24T03:12:51.760Z,66.94
2023-07-24T03:15:21.145Z,67.06
2023-07-24T03:17:50.039Z,67.04
2023-07-24T03:20:22.636Z,67.54
2023-07-24T03:22:51.729Z,67.53
2023-07-24T03:25:20.476Z,66.62
2023-07-24T03:28:01.544Z,66.59
2023-07-24T03:30:30.414Z,66.60
2023-07-24T03:33:00.163Z,66.65
2023-07-24T03:35:30.391Z,66.68
2023-07-24T03:37:59.394Z,66.22
2023-07-24T03:40:28.604Z,66.02
2023-07-24T03:42:57.561Z,65.75
2023-07-24T03:45:26.361Z,65.78
2023-07-24T03:47:55.214Z,65.99
2023-07-24T03:50:26.189Z,66.11
2023-07-24T03:52:56.381Z,65.83
2023-07-24T03:55:25.193Z,65.69
2023-07-24T03:57:54.179Z,66.11
2023-07-24T04:00:23.109Z,65.91
2023-07-24T04:02:51.949Z,65.39
2023-07-24T04:05:21.699Z,65.30
2023-07-24T04:07:51.262Z,64.86
2023-07-24T04:10:21.709Z,65.22
2023-07-24T04:12:50.489Z,65.61
2023-07-24T04:15:51.626Z,66.04
2023-07-24T04:18:20.409Z,66.06
2023-07-24T04:20:54.556Z,65.94
2023-07-24T04:23:23.323Z,66.86
2023-07-24T04:25:53.993Z,67.16
2023-07-24T04:28:23.231Z,67.31
2023-07-24T04:30:53.631Z,67.09
2023-07-24T04:33:28.269Z,66.97
2023-07-24T04:36:01.232Z,66.19
2023-07-24T04:39:05.590Z,66.77
2023-07-24T04:41:35.949Z,67.24
2023-07-24T04:44:05.363Z,67.42
2023-07-24T04:46:34.477Z,67.56
2023-07-24T04:49:34.180Z,67.85
2023-07-24T04:53:18.906Z,68.00
2023-07-24T04:55:48.758Z,67.97
2023-07-24T04:58:19.146Z,68.75
2023-07-24T05:00:47.929Z,69.20
2023-07-24T05:03:18.546Z,69.21
2023-07-24T05:05:52.002Z,69.09
2023-07-24T05:09:42.565Z,68.62
2023-07-24T05:12:11.400Z,69.34
2023-07-24T05:14:41.747Z,69.25
2023-07-24T05:17:10.542Z,69.25
2023-07-24T05:19:39.342Z,69.54
2023-07-24T05:22:08.931Z,69.80
2023-07-24T05:24:37.889Z,69.88
2023-07-24T05:27:07.452Z,69.79
2023-07-24T05:29:36.389Z,69.60
2023-07-24T05:33:20.905Z,71.13
2023-07-24T05:36:17.195Z,70.44
2023-07-24T05:38:51.126Z,70.71
2023-07-24T05:41:20.072Z,70.46
2023-07-24T05:43:48.947Z,70.69
2023-07-24T05:46:17.816Z,70.07
2023-07-24T05:48:46.642Z,70.16
2023-07-24T05:51:46.956Z,70.45
2023-07-24T05:54:16.804Z,70.49
2023-07-24T05:56:45.872Z,70.48
2023-07-24T05:59:15.420Z,70.41
2023-07-24T06:01:44.344Z,70.38
2023-07-24T06:04:13.262Z,70.30
2023-07-24T06:06:43.218Z,70.12
2023-07-24T06:09:13.680Z,70.03
2023-07-24T06:11:42.665Z,69.27
2023-07-24T06:14:11.542Z,68.71
2023-07-24T06:16:40.802Z,67.79
2023-07-24T06:19:16.317Z,66.59
2023-07-24T06:21:45.174Z,65.33
2023-07-24T06:24:15.558Z,64.52
2023-07-24T06:26:44.494Z,63.42
2023-07-24T06:29:13.344Z,62.80
2023-07-24T06:31:42.153Z,63.17
2023-07-24T06:34:11.081Z,62.07
2023-07-24T06:36:39.978Z,60.92
2023-07-24T06:39:08.656Z,61.53
2023-07-24T06:41:38.906Z,61.06
2023-07-24T06:44:08.391Z,60.76
2023-07-24T06:46:37.262Z,60.07
2023-07-24T06:49:06.177Z,58.79
2023-07-24T06:51:35.072Z,58.33
2023-07-24T06:54:05.857Z,58.48
2023-07-24T06:56:35.042Z,54.56
2023-07-24T06:59:05.395Z,52.40
2023-07-24T07:01:34.373Z,53.59
2023-07-24T07:04:30.813Z,53.96
2023-07-24T07:07:02.670Z,54.24
2023-07-24T07:09:31.998Z,50.54
2023-07-24T07:12:02.450Z,51.71
2023-07-24T07:14:32.734Z,52.16
2023-07-24T07:17:01.774Z,52.03
2023-07-24T07:19:30.990Z,51.50
2023-07-24T07:21:59.665Z,51.99
2023-07-24T07:24:32.446Z,53.03
2023-07-24T07:27:01.454Z,51.40
2023-07-24T07:29:32.599Z,51.91
2023-07-24T07:32:01.839Z,50.86
2023-07-24T07:34:33.664Z,50.05
2023-07-24T07:37:02.618Z,49.64
2023-07-24T07:39:32.125Z,49.54
2023-07-24T07:42:12.330Z,50.08
2023-07-24T07:44:48.438Z,50.53
2023-07-24T07:47:17.666Z,51.20
2023-07-24T07:49:46.476Z,50.20
2023-07-24T07:52:18.265Z,50.48
2023-07-24T07:54:49.900Z,49.98
2023-07-24T07:57:18.980Z,50.02
2023-07-24T07:59:49.200Z,49.54
2023-07-24T08:02:18.076Z,49.55
2023-07-24T08:04:52.378Z,48.76
2023-07-24T08:07:21.318Z,48.66
2023-07-24T08:09:50.157Z,48.68
2023-07-24T08:12:19.014Z,48.83
2023-07-24T08:14:49.228Z,49.72
2023-07-24T08:17:18.501Z,48.65
2023-07-24T08:19:47.807Z,47.90
2023-07-24T08:22:16.620Z,49.20
2023-07-24T08:24:46.189Z,49.37
2023-07-24T08:27:15.433Z,48.50
2023-07-24T08:29:44.519Z,46.76
2023-07-24T08:32:15.206Z,47.07
2023-07-24T08:34:44.243Z,47.19
2023-07-24T08:37:14.627Z,46.29
2023-07-24T08:39:43.533Z,45.45
2023-07-24T08:42:14.168Z,47.07
2023-07-24T08:44:45.497Z,46.92
2023-07-24T08:47:18.109Z,47.54
2023-07-24T08:49:49.540Z,47.05
2023-07-24T08:52:34.512Z,46.05
2023-07-24T08:55:07.694Z,47.84
2023-07-24T08:57:36.852Z,47.73
2023-07-24T09:00:07.312Z,46.99
2023-07-24T09:02:38.276Z,45.85
2023-07-24T09:05:09.358Z,45.64
2023-07-24T09:07:39.436Z,46.58
2023-07-24T09:10:12.074Z,45.93
2023-07-24T09:12:43.517Z,46.42
2023-07-24T09:15:14.300Z,46.81
2023-07-24T09:17:53.161Z,47.53
2023-07-24T09:23:13.815Z,45.16
2023-07-24T09:25:46.434Z,44.46
2023-07-24T09:28:17.347Z,44.85
2023-07-24T09:30:57.040Z,44.17
2023-07-24T09:33:38.140Z,44.02
2023-07-24T09:36:09.835Z,44.40
2023-07-24T09:38:39.725Z,45.56
2023-07-24T09:41:10.097Z,45.44
2023-07-24T09:43:41.460Z,48.51
2023-07-24T09:46:12.086Z,45.44
2023-07-24T09:49:07.613Z,45.43
2023-07-24T09:51:34.862Z,45.50
2023-07-24T09:54:16.854Z,44.29
2023-07-24T09:56:51.900Z,44.35
2023-07-24T09:59:25.910Z,44.90
2023-07-24T10:01:56.358Z,45.37
2023-07-24T10:04:27.190Z,44.08
2023-07-24T10:06:57.233Z,44.65
2023-07-24T10:09:30.365Z,43.68
2023-07-24T10:12:00.436Z,45.83
2023-07-24T10:14:30.330Z,46.16
2023-07-24T10:16:59.423Z,45.32
2023-07-24T10:19:40.162Z,43.89
2023-07-24T10:22:09.387Z,44.83
2023-07-24T10:24:42.263Z,45.17
2023-07-24T10:27:11.901Z,46.86
2023-07-24T10:29:41.022Z,50.03
2023-07-24T10:32:20.481Z,55.01
2023-07-24T10:35:01.589Z,60.05
2023-07-24T10:37:38.800Z,57.10
2023-07-24T10:40:09.449Z,58.11
2023-07-24T10:42:38.147Z,60.28
2023-07-24T10:45:09.045Z,61.83
2023-07-24T10:47:38.391Z,60.55
2023-07-24T10:50:10.734Z,60.60
2023-07-24T10:52:39.590Z,58.45
2023-07-24T10:55:10.489Z,59.45
2023-07-24T10:57:39.415Z,56.71
2023-07-24T11:00:10.705Z,54.80
2023-07-24T11:02:39.546Z,53.71
2023-07-24T11:05:11.262Z,53.79
2023-07-24T11:07:40.385Z,54.16
2023-07-24T11:10:21.314Z,50.41
2023-07-24T11:12:51.943Z,46.64
2023-07-24T11:15:28.972Z,46.79
2023-07-24T11:17:57.964Z,48.04
2023-07-24T11:20:30.810Z,45.10
2023-07-24T11:23:00.890Z,44.36
2023-07-24T11:25:30.388Z,45.02
2023-07-24T11:27:59.316Z,43.34
2023-07-24T11:30:28.059Z,44.29
2023-07-24T11:33:00.371Z,45.24
2023-07-24T11:35:31.284Z,45.61
2023-07-24T11:38:00.110Z,44.38
2023-07-24T11:40:36.016Z,45.63
2023-07-24T11:43:05.734Z,45.77
2023-07-24T11:45:44.311Z,45.64
2023-07-24T11:48:14.442Z,44.99
2023-07-24T11:50:50.187Z,47.19
2023-07-24T11:53:24.565Z,46.50
2023-07-24T11:55:54.861Z,49.34
2023-07-24T11:58:24.259Z,51.39
2023-07-24T12:00:54.224Z,52.49
2023-07-24T12:03:23.952Z,51.71
2023-07-24T12:05:54.980Z,53.12
2023-07-24T12:08:33.342Z,54.06
2023-07-24T12:11:02.565Z,53.74
2023-07-24T12:13:33.675Z,55.50
2023-07-24T12:16:02.689Z,50.50
2023-07-24T12:18:31.902Z,48.52
2023-07-24T12:21:02.038Z,50.94
2023-07-24T12:23:30.717Z,54.77
2023-07-24T12:25:59.426Z,53.93
2023-07-24T12:28:28.245Z,50.58
2023-07-24T12:31:00.668Z,51.07
2023-07-24T12:33:29.633Z,54.32
2023-07-24T12:35:58.403Z,55.63
2023-07-24T12:38:28.644Z,55.89
2023-07-24T12:40:57.288Z,59.92
2023-07-24T12:43:26.024Z,60.76
2023-07-24T12:45:54.775Z,62.09
2023-07-24T12:48:23.695Z,62.64
2023-07-24T12:50:53.168Z,64.34
2023-07-24T12:53:22.125Z,63.24
2023-07-24T12:55:59.335Z,67.70
2023-07-24T12:58:28.178Z,69.28
2023-07-24T13:00:57.215Z,70.96
2023-07-24T13:03:26.681Z,72.33
2023-07-24T13:05:55.636Z,75.34
2023-07-24T13:08:27.225Z,76.67
2023-07-24T13:11:03.482Z,76.07
2023-07-24T13:13:32.933Z,76.88
2023-07-24T13:16:30.705Z,74.80
2023-07-24T13:19:02.866Z,75.12
2023-07-24T13:21:33.193Z,73.18
2023-07-24T13:24:50.401Z,73.54
2023-07-24T13:27:20.606Z,73.02
2023-07-24T13:29:49.558Z,73.63
2023-07-24T13:32:31.501Z,74.16
2023-07-24T13:35:03.714Z,74.28
2023-07-24T13:37:32.446Z,72.60
2023-07-24T13:40:01.118Z,70.43
2023-07-24T13:42:36.384Z,67.49
2023-07-24T13:45:32.527Z,65.12
2023-07-24T13:48:01.304Z,63.70
2023-07-24T13:50:30.192Z,63.53
2023-07-24T13:52:58.960Z,64.18
2023-07-24T13:55:31.906Z,63.83
2023-07-24T13:58:02.569Z,63.96
2023-07-24T14:00:33.071Z,64.22
2023-07-24T14:03:02.630Z,64.21
2023-07-24T14:05:34.023Z,63.29
2023-07-24T14:08:03.017Z,64.05
2023-07-24T14:10:32.210Z,62.03
2023-07-24T14:13:02.889Z,59.50
2023-07-24T14:15:32.325Z,57.46
2023-07-24T14:18:01.182Z,56.95
2023-07-24T14:20:30.174Z,54.37
2023-07-24T14:22:59.196Z,52.53
2023-07-24T14:25:31.090Z,52.71
2023-07-24T14:28:01.495Z,52.24
2023-07-24T14:30:30.548Z,51.82
2023-07-24T14:32:59.737Z,55.09
2023-07-24T14:35:34.575Z,58.89
2023-07-24T14:38:05.468Z,59.79
2023-07-24T14:40:35.440Z,61.74
2023-07-24T14:43:07.832Z,62.26
2023-07-24T14:45:37.309Z,60.09
2023-07-24T14:48:10.059Z,61.77
2023-07-24T14:50:45.103Z,63.56
2023-07-24T14:53:14.677Z,63.94
2023-07-24T14:55:46.039Z,61.60
2023-07-24T14:58:20.161Z,61.91
2023-07-24T15:01:15.880Z,56.06
2023-07-24T15:03:45.774Z,58.54
2023-07-24T15:06:14.530Z,58.54
2023-07-24T15:08:43.336Z,58.99
2023-07-24T15:11:12.792Z,56.89
2023-07-24T15:13:43.116Z,54.97
2023-07-24T15:16:11.923Z,60.18
2023-07-24T15:18:40.703Z,61.34
2023-07-24T15:21:10.269Z,60.71
2023-07-24T15:23:39.221Z,61.98
2023-07-24T15:26:08.142Z,61.27
2023-07-24T15:28:37.967Z,62.15
2023-07-24T15:31:11.736Z,59.58
2023-07-24T15:33:42.499Z,61.41
2023-07-24T15:36:13.693Z,59.41
2023-07-24T15:39:00.616Z,60.51
2023-07-24T15:41:30.126Z,62.25
2023-07-24T15:43:59.264Z,59.00
2023-07-24T15:46:33.172Z,60.33
2023-07-24T15:49:19.726Z,60.58
2023-07-24T15:51:50.331Z,55.89
2023-07-24T15:54:19.025Z,55.87
2023-07-24T15:56:48.109Z,57.46
2023-07-24T15:59:17.793Z,57.68
2023-07-24T16:01:49.139Z,57.55
2023-07-24T16:04:27.522Z,54.95
2023-07-24T16:06:57.210Z,57.36
2023-07-24T16:09:26.088Z,56.86
2023-07-24T16:11:54.921Z,57.78
2023-07-24T16:14:25.848Z,56.50
2023-07-24T16:16:56.513Z,52.52
2023-07-24T16:19:32.893Z,51.97
2023-07-24T16:22:55.397Z,53.75
2023-07-24T16:25:52.909Z,50.32
2023-07-24T16:28:22.013Z,54.00
2023-07-24T16:30:51.082Z,55.31
2023-07-24T16:33:24.348Z,55.63
2023-07-24T16:36:11.817Z,55.85
2023-07-24T16:38:41.156Z,54.02
2023-07-24T16:41:10.196Z,54.76
2023-07-24T16:43:40.456Z,56.94
2023-07-24T16:46:25.768Z,54.71
2023-07-24T16:48:57.384Z,53.65
2023-07-24T16:51:37.643Z,48.66
2023-07-24T16:54:06.590Z,51.15
2023-07-24T16:56:42.069Z,54.10
2023-07-24T16:59:11.246Z,56.61
2023-07-24T17:01:40.525Z,54.11
2023-07-24T17:04:11.108Z,48.88
2023-07-24T17:06:40.221Z,50.96
2023-07-24T17:09:09.233Z,53.00
2023-07-24T17:11:38.608Z,56.22
2023-07-24T17:14:08.755Z,56.36
2023-07-24T17:16:40.150Z,55.84
2023-07-24T17:19:12.117Z,57.90
2023-07-24T17:21:41.878Z,55.39
2023-07-24T17:24:12.789Z,55.59
2023-07-24T17:26:42.597Z,54.96
2023-07-24T17:29:11.760Z,54.47
2023-07-24T17:31:43.895Z,51.55
2023-07-24T17:34:14.095Z,54.15
2023-07-24T17:36:44.100Z,56.19
2023-07-24T17:39:12.844Z,57.17
2023-07-24T17:41:41.781Z,57.62
2023-07-24T17:44:10.531Z,55.63
2023-07-24T17:46:40.958Z,56.69
2023-07-24T17:49:09.819Z,57.96
2023-07-24T17:51:40.798Z,59.40
2023-07-24T17:54:09.825Z,58.95
2023-07-24T17:56:44.686Z,60.25
2023-07-24T17:59:14.685Z,60.84
2023-07-24T18:01:44.730Z,61.84
2023-07-24T18:04:15.814Z,59.94
2023-07-24T18:06:46.616Z,59.70
2023-07-24T18:09:21.444Z,60.27
2023-07-24T18:11:50.950Z,59.93
2023-07-24T18:14:21.728Z,60.75
2023-07-24T18:16:51.425Z,63.01
2023-07-24T18:19:21.834Z,62.25
2023-07-24T18:21:52.533Z,61.08
2023-07-24T18:24:22.010Z,60.51
2023-07-24T18:26:51.138Z,62.30
2023-07-24T18:29:20.485Z,60.91
2023-07-24T18:31:49.827Z,60.26
2023-07-24T18:34:20.593Z,61.42
2023-07-24T18:36:49.433Z,62.13
2023-07-24T18:39:19.722Z,62.97
2023-07-24T18:41:48.447Z,63.01
2023-07-24T18:44:18.115Z,63.33
2023-07-24T18:46:47.008Z,64.42
2023-07-24T18:49:15.943Z,63.55
2023-07-24T18:51:45.668Z,63.46
2023-07-24T18:54:15.773Z,60.97
2023-07-24T18:56:46.927Z,60.87
2023-07-24T18:59:17.489Z,60.50
2023-07-24T19:01:47.480Z,57.45
2023-07-24T19:04:16.477Z,54.39
2023-07-24T19:06:45.648Z,53.17
2023-07-24T19:09:14.843Z,53.21
2023-07-24T19:11:45.104Z,53.44
2023-07-24T19:14:14.086Z,54.18
2023-07-24T19:16:42.811Z,54.59
2023-07-24T19:19:12.627Z,55.57
2023-07-24T19:21:41.566Z,55.73
2023-07-24T19:24:23.033Z,56.15
2023-07-24T19:26:53.564Z,56.62
2023-07-24T19:29:22.282Z,56.35
2023-07-24T19:31:52.193Z,56.64
2023-07-24T19:34:21.214Z,56.59
2023-07-24T19:36:50.064Z,57.52
2023-07-24T19:39:18.991Z,58.13
2023-07-24T19:41:47.801Z,58.68
2023-07-24T19:44:18.720Z,58.85
2023-07-24T19:46:47.751Z,58.99
2023-07-24T19:49:16.631Z,59.21
2023-07-24T19:51:45.458Z,59.38
2023-07-24T19:54:14.268Z,58.46
2023-07-24T19:56:43.093Z,58.86
2023-07-24T19:59:11.949Z,58.62
2023-07-24T20:01:44.641Z,57.81
2023-07-24T20:04:14.930Z,57.46
2023-07-24T20:06:44.222Z,57.31
2023-07-24T20:09:14.026Z,58.28
2023-07-24T20:11:43.260Z,58.52
2023-07-24T20:14:12.445Z,57.81
2023-07-24T20:16:43.250Z,56.90
2023-07-24T20:19:12.496Z,57.66
2023-07-24T20:21:42.614Z,58.29
2023-07-24T20:24:13.979Z,58.59
2023-07-24T20:26:45.735Z,58.84
2023-07-24T20:29:15.559Z,58.47
2023-07-24T20:31:46.781Z,58.67
2023-07-24T20:34:16.342Z,58.95
2023-07-24T20:36:46.163Z,58.83
2023-07-24T20:39:18.537Z,58.85
2023-07-24T20:41:47.573Z,60.81
2023-07-24T20:44:16.679Z,62.75
2023-07-24T20:46:46.880Z,64.93
2023-07-24T20:49:15.657Z,65.27
2023-07-24T20:51:44.477Z,66.82
2023-07-24T20:54:13.734Z,68.57
2023-07-24T20:56:42.856Z,69.08
2023-07-24T20:59:11.620Z,69.62
2023-07-24T21:01:40.416Z,70.18
2023-07-24T21:04:10.583Z,71.74
2023-07-24T21:06:39.436Z,73.22
2023-07-24T21:09:08.177Z,73.13
2023-07-24T21:11:36.993Z,73.36
2023-07-24T21:14:05.926Z,72.71
2023-07-24T21:16:34.881Z,72.75
2023-07-24T21:19:03.849Z,73.02
2023-07-24T21:21:34.335Z,73.20
2023-07-24T21:24:03.138Z,73.81
2023-07-24T21:26:31.863Z,73.57
2023-07-24T21:29:00.710Z,73.73
2023-07-24T21:31:30.803Z,74.61
2023-07-24T21:34:00.816Z,74.59
2023-07-24T21:36:30.356Z,74.97
2023-07-24T21:39:02.949Z,74.30
2023-07-24T21:41:34.104Z,74.10
2023-07-24T21:44:04.743Z,74.57
2023-07-24T21:46:35.453Z,75.00
2023-07-24T21:49:08.932Z,75.40
2023-07-24T21:51:38.760Z,75.83
2023-07-24T21:54:10.365Z,75.58
2023-07-24T21:56:40.316Z,76.20
2023-07-24T21:59:10.909Z,76.77
2023-07-24T22:01:40.024Z,76.60
2023-07-24T22:04:11.507Z,76.51
2023-07-24T22:06:40.427Z,75.90
2023-07-24T22:09:10.989Z,76.18
2023-07-24T22:11:40.455Z,75.71
2023-07-24T22:14:09.722Z,75.78
2023-07-24T22:16:39.033Z,75.82
2023-07-24T22:19:08.223Z,75.90
2023-07-24T22:21:37.378Z,76.22
2023-07-24T22:24:07.282Z,76.78
2023-07-24T22:26:38.261Z,76.02
2023-07-24T22:29:07.621Z,76.23
2023-07-24T22:31:36.781Z,76.24
2023-07-24T22:34:05.905Z,76.12
2023-07-24T22:36:35.342Z,75.74
2023-07-24T22:39:07.536Z,75.62
2023-07-24T22:41:38.220Z,75.53
2023-07-24T22:44:08.769Z,75.73
2023-07-24T22:46:37.917Z,76.18
2023-07-24T22:49:07.151Z,76.77
2023-07-24T22:51:36.476Z,76.83
2023-07-24T22:54:06.312Z,76.29
2023-07-24T22:56:37.010Z,76.41
2023-07-24T22:59:22.680Z,76.26
2023-07-24T23:01:53.916Z,76.45
2023-07-24T23:04:25.578Z,76.32
2023-07-24T23:06:57.016Z,76.70
2023-07-24T23:09:26.755Z,77.20
2023-07-24T23:12:00.100Z,76.73
2023-07-24T23:14:31.749Z,76.88
2023-07-24T23:17:01.374Z,77.14
2023-07-24T23:19:30.884Z,77.35
2023-07-24T23:22:00.297Z,77.30
2023-07-24T23:24:29.882Z,76.99
2023-07-24T23:27:01.020Z,76.85
2023-07-24T23:29:30.471Z,77.35
2023-07-24T23:31:59.980Z,77.61
2023-07-24T23:34:31.473Z,77.73
2023-07-24T23:37:01.053Z,77.84
2023-07-24T23:39:30.415Z,77.81
2023-07-24T23:42:01.210Z,78.28
2023-07-24T23:44:30.916Z,78.54
2023-07-24T23:47:00.399Z,78.66
2023-07-24T23:49:29.640Z,78.88
2023-07-24T23:51:59.200Z,78.66
2023-07-24T23:54:28.429Z,78.70
2023-07-24T23:56:57.655Z,79.20
2023-07-24T23:59:27.909Z,79.39
